Time;durP1;ratioP1;P1;durP2;ratioP2;P2;SDS_P1;SDS_P2;PMS_P1;PMS_P2;Temp;Humidity;BMP_temperature;BMP_pressure;BME280_temperature;BME280_humidity;BME280_pressure;Samples;Min_cycle;Max_cycle;Signal;HPM_P1;HPM_P2
2024/01/19 00:00:09;;;;;;;5.82;0.73;;;0.20;81.80;;;;;;5106597;28;20432;-77
2024/01/19 00:02:35;;;;;;;5.05;0.80;;;0.10;82.80;;;;;;5102980;28;20436;-77
2024/01/19 00:05:00;;;;;;;4.65;0.60;;;0.10;83.00;;;;;;5106337;28;20408;-77
2024/01/19 00:07:26;;;;;;;4.97;0.70;;;0.10;83.60;;;;;;5109058;28;20424;-77
2024/01/19 00:09:51;;;;;;;9.43;1.20;;;0.10;83.60;;;;;;5090310;28;20418;-77
2024/01/19 00:12:17;;;;;;;5.95;1.13;;;0.10;83.60;;;;;;5104552;28;20921;-77
2024/01/19 00:14:43;;;;;;;5.70;0.90;;;0.10;83.90;;;;;;5096021;28;20408;-77
2024/01/19 00:17:08;;;;;;;3.43;0.60;;;0.00;83.70;;;;;;5107536;28;20416;-77
2024/01/19 00:19:34;;;;;;;5.57;0.88;;;0.00;84.10;;;;;;5097519;28;20431;-76
2024/01/19 00:21:59;;;;;;;5.40;0.90;;;0.00;84.10;;;;;;5095726;28;20446;-77
2024/01/19 00:24:25;;;;;;;5.87;0.60;;;0.00;84.80;;;;;;5093742;28;20449;-77
2024/01/19 00:26:51;;;;;;;5.65;0.95;;;0.00;84.50;;;;;;5096990;28;20420;-77
2024/01/19 00:29:17;;;;;;;8.77;0.87;;;0.00;84.60;;;;;;5087494;28;20430;-78
2024/01/19 00:31:45;;;;;;;5.75;0.60;;;0.00;85.10;;;;;;5093947;28;20432;-77
2024/01/19 00:34:13;;;;;;;3.58;0.75;;;0.00;84.40;;;;;;5088347;28;20847;-77
2024/01/19 00:36:38;;;;;;;6.82;0.90;;;-0.10;84.30;;;;;;5103413;28;20420;-77
2024/01/19 00:39:04;;;;;;;4.57;0.90;;;-0.10;84.60;;;;;;5095557;28;20530;-77
2024/01/19 00:41:30;;;;;;;4.27;0.70;;;-0.10;83.90;;;;;;5090587;28;20422;-76
2024/01/19 00:43:55;;;;;;;6.43;0.77;;;-0.10;84.60;;;;;;5096611;28;20733;-77
2024/01/19 00:46:21;;;;;;;6.10;0.70;;;0.00;84.60;;;;;;5088655;28;20429;-78
2024/01/19 00:48:48;;;;;;;3.88;0.40;;;0.00;84.50;;;;;;5070244;28;20426;-77
2024/01/19 00:51:14;;;;;;;2.75;0.50;;;0.00;84.30;;;;;;5086249;28;20501;-77
2024/01/19 00:53:39;;;;;;;3.20;0.52;;;0.00;84.90;;;;;;5090743;28;21227;-78
2024/01/19 00:56:07;;;;;;;3.42;0.30;;;0.00;85.10;;;;;;5101130;28;20511;-77
2024/01/19 00:58:32;;;;;;;4.13;0.45;;;0.10;85.40;;;;;;5094161;28;20491;-78
2024/01/19 01:00:58;;;;;;;2.67;0.32;;;0.10;86.20;;;;;;5094087;28;20983;-77
2024/01/19 01:03:25;;;;;;;2.78;0.50;;;0.30;87.00;;;;;;5092293;28;20458;-78
2024/01/19 01:05:58;;;;;;;3.00;0.30;;;0.40;86.30;;;;;;5093071;28;20428;-76
2024/01/19 01:08:25;;;;;;;2.22;0.30;;;0.40;85.60;;;;;;5106135;28;20400;-77
2024/01/19 01:10:51;;;;;;;4.28;0.40;;;0.50;85.10;;;;;;5096951;28;20783;-77
2024/01/19 01:13:17;;;;;;;2.17;0.30;;;0.60;84.40;;;;;;5092727;28;20420;-77
2024/01/19 01:15:43;;;;;;;1.17;0.20;;;0.60;82.60;;;;;;5090643;28;20432;-77
2024/01/19 01:18:09;;;;;;;2.00;0.20;;;0.60;81.60;;;;;;5076937;28;21191;-78
2024/01/19 01:20:34;;;;;;;2.17;0.20;;;0.50;80.70;;;;;;5096186;28;20481;-78
2024/01/19 01:23:00;;;;;;;1.70;0.23;;;0.50;80.80;;;;;;5097493;28;20398;-78
2024/01/19 01:25:26;;;;;;;3.63;0.30;;;0.50;82.10;;;;;;5086610;28;20825;-78
2024/01/19 01:27:51;;;;;;;3.25;0.20;;;0.50;84.70;;;;;;5087555;28;20463;-78
2024/01/19 01:30:17;;;;;;;3.07;0.30;;;0.50;85.20;;;;;;5099564;28;20400;-77
2024/01/19 01:32:42;;;;;;;3.70;0.30;;;0.50;85.60;;;;;;5092244;28;20916;-77
2024/01/19 01:35:08;;;;;;;2.83;0.30;;;0.40;85.30;;;;;;5106762;28;20404;-77
2024/01/19 01:37:34;;;;;;;2.57;0.53;;;0.40;86.70;;;;;;5085354;28;20556;-77
2024/01/19 01:39:59;;;;;;;4.77;0.50;;;0.30;87.10;;;;;;5093614;28;20419;-77
2024/01/19 01:42:25;;;;;;;5.72;0.50;;;0.30;86.90;;;;;;5090828;28;20412;-77
2024/01/19 01:44:50;;;;;;;3.90;0.40;;;0.30;88.50;;;;;;5105045;28;20902;-77
2024/01/19 01:47:16;;;;;;;5.47;0.50;;;0.30;89.00;;;;;;5086502;28;20429;-77
2024/01/19 01:49:42;;;;;;;6.03;0.50;;;0.30;88.90;;;;;;5086812;28;20459;-77
2024/01/19 01:52:09;;;;;;;3.93;0.50;;;0.30;88.70;;;;;;5085708;28;20414;-77
2024/01/19 01:54:35;;;;;;;5.53;0.40;;;0.30;89.20;;;;;;5086215;28;20413;-77
2024/01/19 01:57:01;;;;;;;3.20;0.63;;;0.30;88.80;;;;;;5087505;28;20785;-78
2024/01/19 01:59:28;;;;;;;3.95;0.50;;;0.30;89.00;;;;;;5091334;28;20850;-77
2024/01/19 02:01:54;;;;;;;3.05;0.55;;;0.30;88.60;;;;;;5087966;28;20425;-77
2024/01/19 02:04:20;;;;;;;3.70;0.38;;;0.30;88.20;;;;;;5077692;28;20419;-78
2024/01/19 02:06:45;;;;;;;6.05;0.80;;;0.40;88.10;;;;;;5090403;28;21301;-77
2024/01/19 02:09:13;;;;;;;4.87;0.50;;;0.40;88.70;;;;;;5097943;28;20398;-77
2024/01/19 02:11:39;;;;;;;4.57;0.60;;;0.50;90.30;;;;;;5100535;28;20485;-77
2024/01/19 02:14:06;;;;;;;5.68;0.50;;;0.60;90.60;;;;;;5083104;28;20511;-77
2024/01/19 02:16:32;;;;;;;3.97;0.50;;;0.70;90.60;;;;;;5094455;28;20432;-77
2024/01/19 02:18:58;;;;;;;1.47;0.37;;;0.70;91.60;;;;;;5100495;28;21223;-78
2024/01/19 02:21:24;;;;;;;3.33;0.20;;;0.70;92.30;;;;;;5092495;28;20409;-78
2024/01/19 02:24:01;;;;;;;5.05;0.40;;;0.70;93.50;;;;;;5105953;28;20420;-77
2024/01/19 02:26:28;;;;;;;5.15;0.60;;;0.70;94.70;;;;;;5082678;28;20425;-77
2024/01/19 02:28:54;;;;;;;3.67;0.38;;;0.70;95.40;;;;;;5099265;28;20450;-77
2024/01/19 02:31:19;;;;;;;5.93;0.70;;;0.60;96.00;;;;;;5103953;28;20428;-77
2024/01/19 02:33:45;;;;;;;5.47;0.65;;;0.70;96.40;;;;;;5093454;28;20733;-78
2024/01/19 02:36:10;;;;;;;3.83;0.50;;;0.70;96.80;;;;;;5104144;28;20435;-77
2024/01/19 02:38:36;;;;;;;4.93;0.50;;;0.60;96.90;;;;;;5093382;28;20412;-77
2024/01/19 02:41:02;;;;;;;5.77;0.70;;;0.60;97.00;;;;;;5106024;28;20422;-77
2024/01/19 02:43:27;;;;;;;5.80;0.70;;;0.50;96.80;;;;;;5101931;28;20416;-77
2024/01/19 02:45:53;;;;;;;7.68;0.90;;;0.50;96.80;;;;;;5108346;28;20755;-77
2024/01/19 02:48:18;;;;;;;7.73;0.80;;;0.40;96.70;;;;;;5090992;28;20467;-77
2024/01/19 02:50:44;;;;;;;4.10;0.60;;;0.30;96.40;;;;;;5099846;28;20488;-77
2024/01/19 02:53:10;;;;;;;6.50;1.23;;;0.30;96.50;;;;;;5092205;28;20421;-78
2024/01/19 02:55:36;;;;;;;6.53;0.60;;;0.20;96.30;;;;;;5100643;28;20426;-77
2024/01/19 02:58:01;;;;;;;7.27;1.00;;;0.10;96.40;;;;;;5099000;28;20412;-77
2024/01/19 03:00:27;;;;;;;8.00;0.80;;;0.00;96.30;;;;;;5103169;28;20449;-77
2024/01/19 03:02:52;;;;;;;6.13;0.80;;;0.00;96.50;;;;;;5102050;28;20479;-78
2024/01/19 03:05:19;;;;;;;7.53;1.00;;;-0.10;96.70;;;;;;5106096;28;20422;-78
2024/01/19 03:07:44;;;;;;;7.63;1.10;;;-0.20;96.70;;;;;;5100191;28;20438;-75
2024/01/19 03:10:10;;;;;;;7.07;1.00;;;-0.20;96.60;;;;;;5107192;28;20412;-76
2024/01/19 03:12:36;;;;;;;5.33;1.00;;;-0.20;97.00;;;;;;5093144;28;20500;-76
2024/01/19 03:15:02;;;;;;;4.00;1.25;;;-0.30;97.00;;;;;;5097741;28;20420;-77
2024/01/19 03:17:28;;;;;;;4.68;0.80;;;-0.30;97.40;;;;;;5101449;28;20426;-77
2024/01/19 03:19:54;;;;;;;7.03;0.95;;;-0.40;97.20;;;;;;5100101;28;20421;-77
2024/01/19 03:22:19;;;;;;;4.10;0.90;;;-0.40;97.00;;;;;;5089323;28;20444;-77
2024/01/19 03:24:45;;;;;;;7.95;1.17;;;-0.50;97.10;;;;;;5092097;28;20427;-77
2024/01/19 03:27:10;;;;;;;7.13;1.40;;;-0.50;97.00;;;;;;5096880;28;20421;-77
2024/01/19 03:29:36;;;;;;;12.93;1.40;;;-0.50;97.30;;;;;;5105543;28;20406;-77
2024/01/19 03:32:02;;;;;;;6.37;1.20;;;-0.50;97.30;;;;;;5101006;28;20730;-77
2024/01/19 03:34:28;;;;;;;4.57;0.90;;;-0.60;97.30;;;;;;5106636;28;20406;-77
2024/01/19 03:36:53;;;;;;;7.95;1.38;;;-0.60;97.50;;;;;;5100039;28;20440;-77
2024/01/19 03:39:19;;;;;;;6.05;1.30;;;-0.60;97.80;;;;;;5097543;28;21033;-77
2024/01/19 03:41:45;;;;;;;7.85;1.50;;;-0.50;98.00;;;;;;5089405;28;20405;-77
2024/01/19 03:44:10;;;;;;;8.27;2.07;;;-0.40;98.30;;;;;;5106175;28;20384;-77
2024/01/19 03:46:36;;;;;;;6.88;1.35;;;-0.40;98.60;;;;;;5093788;28;21001;-78
2024/01/19 03:49:02;;;;;;;9.63;1.80;;;-0.40;98.50;;;;;;5105524;28;20404;-76
2024/01/19 03:51:28;;;;;;;7.15;1.55;;;-0.30;98.60;;;;;;5090240;28;20460;-76
2024/01/19 03:53:53;;;;;;;7.15;1.70;;;-0.30;98.90;;;;;;5105916;28;20428;-76
2024/01/19 03:56:19;;;;;;;6.33;1.43;;;-0.20;98.90;;;;;;5095725;28;20441;-75
2024/01/19 03:58:44;;;;;;;7.57;1.30;;;-0.20;98.90;;;;;;5094741;28;20875;-76
2024/01/19 04:01:10;;;;;;;6.63;1.50;;;-0.30;98.40;;;;;;5098986;28;20424;-76
2024/01/19 04:03:36;;;;;;;8.03;1.37;;;-0.30;98.30;;;;;;5106709;28;20778;-77
2024/01/19 04:06:02;;;;;;;6.32;1.20;;;-0.40;98.30;;;;;;5100610;28;20514;-77
2024/01/19 04:08:28;;;;;;;8.07;1.38;;;-0.40;98.10;;;;;;5095899;28;20400;-77
2024/01/19 04:10:54;;;;;;;7.00;1.53;;;-0.40;98.00;;;;;;5089643;28;20425;-77
2024/01/19 04:13:20;;;;;;;8.60;1.63;;;-0.50;98.00;;;;;;5087926;28;20413;-76
2024/01/19 04:15:45;;;;;;;5.47;1.40;;;-0.60;98.00;;;;;;5082743;28;21358;-77
2024/01/19 04:18:11;;;;;;;9.63;1.55;;;-0.60;98.10;;;;;;5097190;28;20949;-78
2024/01/19 04:20:36;;;;;;;10.57;1.77;;;-0.60;98.20;;;;;;5101578;28;20402;-78
2024/01/19 04:23:03;;;;;;;7.23;1.60;;;-0.60;98.30;;;;;;5094022;28;20505;-76
2024/01/19 04:25:28;;;;;;;6.70;1.30;;;-0.60;98.60;;;;;;5101036;28;20507;-76
2024/01/19 04:27:55;;;;;;;6.33;1.43;;;-0.60;98.40;;;;;;5103568;28;20413;-76
2024/01/19 04:30:20;;;;;;;9.25;1.50;;;-0.60;98.60;;;;;;5101319;28;20402;-77
2024/01/19 04:32:46;;;;;;;9.07;1.30;;;-0.60;98.50;;;;;;5100381;28;20416;-76
2024/01/19 04:35:12;;;;;;;9.05;1.63;;;-0.60;98.60;;;;;;5098484;28;20434;-77
2024/01/19 04:37:37;;;;;;;6.15;1.10;;;-0.60;98.50;;;;;;5086112;28;20466;-76
2024/01/19 04:40:03;;;;;;;8.50;1.23;;;-0.70;98.40;;;;;;5088707;28;20402;-76
2024/01/19 04:42:29;;;;;;;11.80;1.52;;;-0.70;98.50;;;;;;5093936;28;20424;-77
2024/01/19 04:44:55;;;;;;;6.20;1.10;;;-0.70;98.50;;;;;;5099882;28;20394;-77
2024/01/19 04:47:21;;;;;;;9.27;1.20;;;-0.70;98.60;;;;;;5094607;28;20429;-76
2024/01/19 04:49:47;;;;;;;10.45;1.42;;;-0.60;99.10;;;;;;5096012;28;20767;-76
2024/01/19 04:52:13;;;;;;;9.60;1.40;;;-0.60;99.30;;;;;;5094305;28;20419;-76
2024/01/19 04:54:38;;;;;;;10.33;1.73;;;-0.50;99.40;;;;;;5095041;28;20417;-76
2024/01/19 04:57:04;;;;;;;8.10;1.13;;;-0.40;99.40;;;;;;5098660;28;20439;-76
2024/01/19 04:59:30;;;;;;;10.33;1.43;;;-0.40;99.50;;;;;;5095073;28;20408;-77
2024/01/19 05:01:56;;;;;;;10.10;1.23;;;-0.40;99.50;;;;;;5096388;28;20426;-77
2024/01/19 05:04:22;;;;;;;10.10;1.47;;;-0.30;99.60;;;;;;5087527;28;20447;-76
2024/01/19 05:06:48;;;;;;;11.38;1.65;;;-0.30;99.70;;;;;;5099872;28;20475;-76
2024/01/19 05:09:14;;;;;;;10.10;1.63;;;-0.20;99.50;;;;;;5094154;28;20501;-76
2024/01/19 05:11:40;;;;;;;10.65;1.70;;;-0.20;99.50;;;;;;5094960;28;20911;-76
2024/01/19 05:14:06;;;;;;;12.97;1.77;;;-0.20;99.20;;;;;;5097509;28;20456;-76
2024/01/19 05:16:32;;;;;;;8.90;1.40;;;-0.20;99.10;;;;;;5104252;28;20424;-76
2024/01/19 05:18:58;;;;;;;13.95;1.63;;;-0.20;98.60;;;;;;5092008;28;20757;-75
2024/01/19 05:21:24;;;;;;;10.55;1.85;;;-0.20;98.50;;;;;;5106193;28;20396;-76
2024/01/19 05:23:49;;;;;;;13.25;1.25;;;-0.20;98.10;;;;;;5093400;28;20486;-77
2024/01/19 05:26:15;;;;;;;9.07;1.57;;;-0.30;97.80;;;;;;5103836;28;20436;-76
2024/01/19 05:28:41;;;;;;;9.00;1.50;;;-0.40;97.60;;;;;;5097237;28;20479;-77
2024/01/19 05:31:07;;;;;;;13.38;1.40;;;-0.40;97.60;;;;;;5107315;28;20447;-77
2024/01/19 05:33:34;;;;;;;10.82;1.70;;;-0.50;97.40;;;;;;5101379;28;20437;-77
2024/01/19 05:36:00;;;;;;;13.63;1.73;;;-0.50;97.20;;;;;;5104929;28;20449;-78
2024/01/19 05:38:26;;;;;;;10.93;1.30;;;-0.60;97.30;;;;;;5103111;28;20417;-77
2024/01/19 05:40:51;;;;;;;9.80;1.60;;;-0.60;97.20;;;;;;5109602;28;20400;-77
2024/01/19 05:43:17;;;;;;;7.35;1.10;;;-0.60;97.30;;;;;;5105416;28;21060;-76
2024/01/19 05:45:42;;;;;;;10.90;1.80;;;-0.60;97.40;;;;;;5099895;28;20403;-77
2024/01/19 05:48:08;;;;;;;11.57;1.77;;;-0.60;97.20;;;;;;5105666;28;20919;-76
2024/01/19 05:50:33;;;;;;;9.85;1.23;;;-0.70;96.80;;;;;;5098909;28;20447;-77
2024/01/19 05:52:59;;;;;;;11.97;1.73;;;-0.70;96.80;;;;;;5099001;28;20969;-77
2024/01/19 05:55:25;;;;;;;11.88;1.85;;;-0.80;96.70;;;;;;5102332;28;20408;-76
2024/01/19 05:57:50;;;;;;;9.77;1.50;;;-0.80;96.70;;;;;;5094129;28;20456;-77
2024/01/19 06:00:16;;;;;;;12.67;1.73;;;-0.80;96.80;;;;;;5091680;28;20409;-77
2024/01/19 06:02:42;;;;;;;12.02;1.50;;;-0.80;96.50;;;;;;5101792;28;20402;-77
2024/01/19 06:05:08;;;;;;;11.85;1.50;;;-0.80;96.70;;;;;;5106861;28;20404;-77
2024/01/19 06:07:35;;;;;;;11.05;1.50;;;-0.80;96.90;;;;;;5103200;28;21641;-76
2024/01/19 06:10:01;;;;;;;13.17;1.60;;;-0.80;96.80;;;;;;5099155;28;20432;-76
2024/01/19 06:12:26;;;;;;;9.85;1.20;;;-0.80;96.70;;;;;;5093963;28;20784;-77
2024/01/19 06:14:52;;;;;;;9.52;1.20;;;-0.80;96.50;;;;;;5108406;28;20414;-77
2024/01/19 06:17:18;;;;;;;12.87;1.50;;;-0.90;96.70;;;;;;5092222;28;20434;-76
2024/01/19 06:19:43;;;;;;;10.13;1.50;;;-0.90;96.60;;;;;;5086971;28;20912;-77
2024/01/19 06:22:09;;;;;;;9.98;1.20;;;-0.90;96.40;;;;;;5088495;28;20400;-76
2024/01/19 06:24:36;;;;;;;10.60;1.15;;;-0.90;96.40;;;;;;5085615;28;20429;-76
2024/01/19 06:27:03;;;;;;;11.23;1.20;;;-0.90;96.30;;;;;;5099174;28;20425;-76
2024/01/19 06:29:29;;;;;;;10.15;1.23;;;-0.90;96.50;;;;;;5090706;28;20916;-76
2024/01/19 06:31:54;;;;;;;10.40;1.40;;;-0.90;96.70;;;;;;5089845;28;20435;-77
2024/01/19 06:34:20;;;;;;;9.50;1.60;;;-0.90;97.00;;;;;;5076095;28;20970;-76
2024/01/19 06:36:46;;;;;;;8.80;1.50;;;-0.90;96.90;;;;;;5089172;28;20487;-77
2024/01/19 06:39:12;;;;;;;7.17;0.97;;;-0.90;97.00;;;;;;5090370;28;20488;-76
2024/01/19 06:41:44;;;;;;;6.50;1.00;;;-0.90;97.00;;;;;;5090290;28;20398;-77
2024/01/19 06:44:11;;;;;;;8.05;1.02;;;-0.90;96.90;;;;;;5103325;28;20446;-77
2024/01/19 06:46:37;;;;;;;9.48;1.30;;;-0.90;96.80;;;;;;5090168;28;20481;-76
2024/01/19 06:49:02;;;;;;;9.27;1.23;;;-0.90;96.80;;;;;;5105253;28;20492;-76
2024/01/19 06:51:28;;;;;;;8.00;1.00;;;-0.90;96.90;;;;;;5105635;28;20491;-77
2024/01/19 06:53:57;;;;;;;7.97;1.20;;;-0.90;97.00;;;;;;5086832;28;21078;-77
2024/01/19 06:56:23;;;;;;;7.72;1.00;;;-0.80;96.90;;;;;;5090536;28;20794;-77
2024/01/19 06:58:48;;;;;;;9.57;1.35;;;-0.80;96.80;;;;;;5109981;28;20401;-76
2024/01/19 07:01:14;;;;;;;10.23;1.35;;;-0.80;96.50;;;;;;5108968;28;20416;-77
2024/01/19 07:03:40;;;;;;;12.95;1.55;;;-0.90;96.50;;;;;;5110039;28;20426;-77
2024/01/19 07:06:06;;;;;;;7.70;1.30;;;-0.90;96.50;;;;;;5108843;28;20400;-77
2024/01/19 07:08:31;;;;;;;15.23;1.80;;;-0.90;96.50;;;;;;5091559;28;20499;-77
2024/01/19 07:10:57;;;;;;;10.90;1.27;;;-0.90;96.70;;;;;;5107018;28;20412;-76
2024/01/19 07:13:23;;;;;;;8.57;1.10;;;-0.90;96.40;;;;;;5108805;28;20401;-77
2024/01/19 07:15:48;;;;;;;8.33;1.20;;;-0.90;96.30;;;;;;5105355;28;20820;-77
2024/01/19 07:18:14;;;;;;;8.73;1.33;;;-0.90;96.10;;;;;;5108511;28;20479;-76
2024/01/19 07:20:40;;;;;;;10.32;1.30;;;-1.00;96.20;;;;;;5105681;28;20404;-77
2024/01/19 07:23:05;;;;;;;8.55;1.40;;;-1.00;96.30;;;;;;5095524;28;20423;-77
2024/01/19 07:25:31;;;;;;;10.27;1.60;;;-1.00;96.20;;;;;;5105274;28;20487;-76
2024/01/19 07:27:57;;;;;;;7.93;1.20;;;-1.00;96.30;;;;;;5083918;28;20416;-76
2024/01/19 07:30:22;;;;;;;9.27;1.40;;;-1.00;96.50;;;;;;5107542;28;20592;-77
2024/01/19 07:32:48;;;;;;;7.38;1.60;;;-1.00;96.60;;;;;;5108976;28;20850;-77
2024/01/19 07:35:14;;;;;;;11.00;1.90;;;-1.00;96.70;;;;;;5107835;28;20420;-77
2024/01/19 07:37:39;;;;;;;10.05;1.75;;;-1.00;97.00;;;;;;5101372;28;20780;-77
2024/01/19 07:40:05;;;;;;;8.32;1.70;;;-1.00;97.10;;;;;;5101850;28;20449;-77
2024/01/19 07:42:31;;;;;;;11.15;1.65;;;-0.90;97.10;;;;;;5096102;28;20756;-77
2024/01/19 07:44:57;;;;;;;10.20;1.80;;;-0.90;97.00;;;;;;5107124;28;20437;-77
2024/01/19 07:47:24;;;;;;;7.90;1.80;;;-0.90;97.00;;;;;;5077596;28;20405;-77
2024/01/19 07:49:49;;;;;;;11.15;2.10;;;-0.90;97.20;;;;;;5089118;28;20414;-77
2024/01/19 07:52:15;;;;;;;8.20;1.60;;;-0.90;97.20;;;;;;5107288;28;20884;-77
2024/01/19 07:54:41;;;;;;;9.52;2.53;;;-0.90;97.20;;;;;;5103352;28;20404;-77
2024/01/19 07:57:06;;;;;;;13.85;3.63;;;-0.90;97.40;;;;;;5105916;28;20424;-76
2024/01/19 07:59:32;;;;;;;9.00;2.87;;;-0.90;97.40;;;;;;5104761;28;20411;-76
2024/01/19 08:01:59;;;;;;;9.90;2.65;;;-0.90;97.40;;;;;;5105616;28;20771;-77
2024/01/19 08:04:24;;;;;;;9.00;1.63;;;-0.90;97.20;;;;;;5093881;28;20417;-77
2024/01/19 08:06:50;;;;;;;7.30;1.63;;;-0.90;97.40;;;;;;5105163;28;20408;-77
2024/01/19 08:09:15;;;;;;;10.20;2.03;;;-0.90;97.50;;;;;;5104428;28;20388;-77
2024/01/19 08:11:41;;;;;;;7.17;1.87;;;-0.80;97.90;;;;;;5092368;28;20405;-77
2024/01/19 08:14:07;;;;;;;6.67;1.60;;;-0.80;98.00;;;;;;5105516;28;20841;-77
2024/01/19 08:16:32;;;;;;;9.80;1.50;;;-0.70;98.10;;;;;;5105329;28;20439;-77
2024/01/19 08:18:58;;;;;;;7.27;1.80;;;-0.70;98.50;;;;;;5104661;28;20978;-76
2024/01/19 08:21:24;;;;;;;7.67;1.63;;;-0.60;98.70;;;;;;5101676;28;20767;-76
2024/01/19 08:23:50;;;;;;;8.30;1.43;;;-0.50;98.70;;;;;;5104644;28;20482;-77
2024/01/19 08:26:18;;;;;;;10.43;1.73;;;-0.50;98.70;;;;;;5103481;28;20396;-77
2024/01/19 08:28:46;;;;;;;12.45;1.70;;;-0.40;98.40;;;;;;5093794;28;20533;-77
2024/01/19 08:31:12;;;;;;;9.63;1.80;;;-0.30;98.70;;;;;;5091897;28;20416;-76
2024/01/19 08:33:38;;;;;;;13.02;1.88;;;-0.30;98.90;;;;;;5095214;28;20906;-77
2024/01/19 08:36:04;;;;;;;11.05;1.30;;;-0.20;99.10;;;;;;5073923;28;20421;-77
2024/01/19 08:38:29;;;;;;;8.70;1.65;;;-0.10;98.90;;;;;;5094811;28;20428;-77
2024/01/19 08:40:55;;;;;;;11.53;1.67;;;-0.10;98.60;;;;;;5091980;28;20449;-77
2024/01/19 08:43:21;;;;;;;8.27;1.73;;;-0.10;98.30;;;;;;5076663;28;21557;-77
2024/01/19 08:45:47;;;;;;;9.73;1.55;;;-0.10;98.10;;;;;;5091918;28;20409;-77
2024/01/19 08:48:12;;;;;;;9.95;1.75;;;-0.20;97.70;;;;;;5095216;28;20465;-77
2024/01/19 08:50:38;;;;;;;10.17;1.70;;;-0.20;97.40;;;;;;5092133;28;20443;-77
2024/01/19 08:53:04;;;;;;;8.53;1.40;;;-0.20;97.40;;;;;;5077340;28;20493;-77
2024/01/19 08:55:30;;;;;;;9.20;1.50;;;-0.20;97.50;;;;;;5092002;28;20456;-77
2024/01/19 08:57:55;;;;;;;10.13;1.43;;;-0.20;97.60;;;;;;5095504;28;20857;-77
2024/01/19 09:00:21;;;;;;;11.02;1.67;;;-0.20;97.60;;;;;;5091457;28;20412;-77
2024/01/19 09:02:51;;;;;;;9.68;1.40;;;-0.10;97.80;;;;;;5093807;28;20400;-77
2024/01/19 09:05:17;;;;;;;12.67;2.10;;;-0.10;98.00;;;;;;5089728;28;20954;-77
2024/01/19 09:07:42;;;;;;;14.17;1.90;;;-0.10;97.80;;;;;;5094082;28;20404;-77
2024/01/19 09:10:08;;;;;;;11.90;1.45;;;0.00;97.80;;;;;;5090525;28;20422;-76
2024/01/19 09:12:34;;;;;;;12.65;1.92;;;0.00;97.80;;;;;;5094904;28;20833;-77
2024/01/19 09:15:00;;;;;;;10.63;1.38;;;0.00;97.90;;;;;;5089906;28;20441;-76
2024/01/19 09:17:25;;;;;;;9.00;1.40;;;0.00;97.90;;;;;;5091696;28;20430;-77
2024/01/19 09:19:53;;;;;;;11.80;1.73;;;0.10;97.80;;;;;;5091444;28;20928;-77
2024/01/19 09:22:19;;;;;;;10.57;1.83;;;0.10;97.70;;;;;;5093507;28;21019;-77
2024/01/19 09:24:44;;;;;;;7.57;1.40;;;0.10;97.50;;;;;;5089472;28;20414;-77
2024/01/19 09:27:10;;;;;;;8.07;1.50;;;0.10;97.40;;;;;;5088991;28;20441;-77
2024/01/19 09:29:36;;;;;;;14.23;2.00;;;0.20;97.30;;;;;;5069158;28;20455;-77
2024/01/19 09:32:01;;;;;;;7.07;1.58;;;0.20;97.10;;;;;;5086824;28;20424;-77
2024/01/19 09:34:28;;;;;;;9.23;1.50;;;0.20;97.00;;;;;;5087441;28;20539;-77
2024/01/19 09:36:53;;;;;;;10.45;1.52;;;0.30;97.00;;;;;;5086101;28;20935;-76
2024/01/19 09:39:21;;;;;;;10.67;2.13;;;0.30;97.00;;;;;;5086562;28;20414;-76
2024/01/19 09:41:48;;;;;;;8.05;1.40;;;0.40;97.00;;;;;;5086675;28;21138;-77
2024/01/19 09:44:18;;;;;;;9.05;1.90;;;0.40;96.90;;;;;;5095761;28;20412;-77
2024/01/19 09:47:14;;;;;;;12.23;1.73;;;0.50;96.90;;;;;;5104951;28;20961;-77
2024/01/19 09:49:46;;;;;;;11.77;1.85;;;0.60;96.90;;;;;;5106444;28;20408;-77
2024/01/19 09:52:47;;;;;;;9.70;1.48;;;0.70;97.20;;;;;;5103878;28;20416;-77
2024/01/19 09:55:14;;;;;;;11.67;1.87;;;0.80;96.60;;;;;;5101646;28;20495;-77
2024/01/19 09:57:47;;;;;;;11.90;2.00;;;0.90;96.10;;;;;;5104635;28;20432;-77
2024/01/19 10:00:15;;;;;;;11.20;1.30;;;1.00;95.50;;;;;;5102817;28;20420;-77
2024/01/19 10:02:45;;;;;;;10.80;1.60;;;1.00;94.70;;;;;;5106168;28;20408;-76
2024/01/19 10:05:13;;;;;;;12.55;1.70;;;1.10;94.50;;;;;;5103562;28;20412;-77
2024/01/19 10:07:41;;;;;;;10.13;1.60;;;1.10;94.40;;;;;;5103702;28;20408;-77
2024/01/19 10:10:08;;;;;;;11.77;1.52;;;1.10;94.10;;;;;;5103968;28;20483;-77
2024/01/19 10:12:34;;;;;;;11.73;2.33;;;1.20;93.80;;;;;;5103526;28;20431;-77
2024/01/19 10:15:00;;;;;;;10.35;2.28;;;1.20;93.10;;;;;;5081833;28;20400;-78
2024/01/19 10:17:26;;;;;;;12.68;2.10;;;1.30;93.00;;;;;;5104263;28;20822;-78
2024/01/19 10:19:53;;;;;;;9.02;1.50;;;1.30;92.30;;;;;;5109283;28;20450;-77
2024/01/19 10:22:29;;;;;;;8.52;1.25;;;1.40;91.90;;;;;;5106248;28;20501;-77
2024/01/19 10:24:59;;;;;;;9.95;1.45;;;1.40;91.50;;;;;;5091097;28;20420;-77
2024/01/19 10:27:41;;;;;;;10.27;1.92;;;1.40;91.20;;;;;;5078744;28;20406;-77
2024/01/19 10:30:27;;;;;;;8.88;2.05;;;1.50;90.70;;;;;;5101417;28;20412;-77
2024/01/19 10:33:01;;;;;;;9.43;1.60;;;1.50;90.20;;;;;;5110959;28;20415;-77
2024/01/19 10:35:27;;;;;;;10.20;1.30;;;1.60;90.00;;;;;;5094450;28;20413;-77
2024/01/19 10:38:03;;;;;;;10.32;2.03;;;1.60;89.80;;;;;;5090608;28;20410;-77
2024/01/19 10:40:31;;;;;;;6.78;1.52;;;1.70;87.50;;;;;;5102842;28;20463;-77
2024/01/19 10:42:57;;;;;;;7.57;1.30;;;1.70;86.50;;;;;;5090767;28;20448;-77
2024/01/19 10:45:35;;;;;;;9.83;1.97;;;1.70;86.30;;;;;;5107229;28;20411;-77
2024/01/19 10:48:03;;;;;;;9.40;1.80;;;1.80;86.60;;;;;;5109945;28;20489;-77
2024/01/19 10:50:30;;;;;;;8.68;1.98;;;2.00;90.80;;;;;;5108001;28;20408;-77
2024/01/19 10:53:10;;;;;;;11.70;1.90;;;2.90;97.10;;;;;;5108759;28;20400;-77
2024/01/19 10:55:36;;;;;;;8.55;1.45;;;4.00;93.60;;;;;;5086811;28;20404;-77
2024/01/19 10:58:04;;;;;;;9.98;1.35;;;4.90;71.80;;;;;;5089700;28;20936;-76
2024/01/19 11:00:31;;;;;;;10.07;1.73;;;5.30;59.20;;;;;;5109242;28;20412;-76
2024/01/19 11:02:59;;;;;;;8.50;1.70;;;5.40;43.30;;;;;;5107228;28;20408;-76
2024/01/19 11:05:26;;;;;;;10.85;1.70;;;5.40;23.50;;;;;;5108820;28;20449;-76
2024/01/19 11:07:56;;;;;;;9.82;1.60;;;5.40;35.10;;;;;;5106551;27;20406;-76
2024/01/19 11:10:23;;;;;;;10.30;1.83;;;5.40;33.30;;;;;;5107931;28;20751;-77
2024/01/19 11:13:10;;;;;;;7.47;1.60;;;5.50;29.60;;;;;;5103798;28;20451;-77
2024/01/19 11:15:48;;;;;;;11.43;1.90;;;5.70;24.50;;;;;;5105829;28;20412;-77
2024/01/19 11:18:15;;;;;;;9.70;1.60;;;5.90;13.70;;;;;;5103533;28;20412;-77
2024/01/19 11:20:40;;;;;;;10.10;1.70;;;5.80;5.30;;;;;;5104426;28;20408;-77
2024/01/19 11:23:07;;;;;;;12.00;1.83;;;6.10;15.10;;;;;;5106998;28;20855;-77
2024/01/19 11:25:47;;;;;;;7.32;1.35;;;6.40;2.30;;;;;;5103587;28;20507;-77
2024/01/19 11:28:30;;;;;;;8.55;1.20;;;6.80;1.00;;;;;;5088867;28;20903;-77
2024/01/19 11:31:18;;;;;;;7.70;1.17;;;7.20;1.00;;;;;;5088847;28;20406;-78
2024/01/19 11:33:43;;;;;;;8.63;1.30;;;7.50;1.00;;;;;;5091162;28;20410;-77
2024/01/19 11:36:10;;;;;;;6.03;1.25;;;7.80;1.00;;;;;;5100632;28;20441;-77
2024/01/19 11:38:43;;;;;;;9.10;1.67;;;7.80;1.00;;;;;;5102282;28;20412;-77
2024/01/19 11:41:10;;;;;;;15.52;1.80;;;8.00;1.00;;;;;;5099491;28;20814;-77
2024/01/19 11:43:40;;;;;;;10.20;1.23;;;8.30;1.00;;;;;;5092433;28;20400;-77
2024/01/19 11:46:10;;;;;;;8.90;1.20;;;8.60;1.00;;;;;;5107658;28;20453;-77
2024/01/19 11:48:41;;;;;;;9.80;1.50;;;8.40;1.00;;;;;;5094781;28;20408;-77
2024/01/19 11:51:07;;;;;;;9.02;1.30;;;7.60;1.00;;;;;;5108836;28;20404;-77
2024/01/19 11:53:54;;;;;;;10.93;1.50;;;6.70;1.00;;;;;;5106279;28;20415;-77
2024/01/19 11:56:24;;;;;;;8.43;1.50;;;5.90;1.00;;;;;;5107110;28;20993;-77
2024/01/19 11:58:50;;;;;;;10.93;1.37;;;5.40;1.00;;;;;;5108503;28;20411;-77
2024/01/19 12:01:16;;;;;;;9.20;1.03;;;5.10;1.00;;;;;;5107099;28;20404;-77
2024/01/19 12:03:42;;;;;;;8.03;1.30;;;5.00;1.00;;;;;;5107714;28;20962;-77
2024/01/19 12:06:08;;;;;;;10.90;1.40;;;4.70;1.00;;;;;;5105428;28;20475;-77
2024/01/19 12:08:34;;;;;;;6.80;1.20;;;4.60;1.00;;;;;;5089031;28;20439;-77
2024/01/19 12:11:04;;;;;;;9.75;1.48;;;4.50;1.00;;;;;;5102878;28;20444;-76
2024/01/19 12:13:35;;;;;;;6.68;1.38;;;4.40;6.20;;;;;;5107400;28;20918;-77
2024/01/19 12:16:03;;;;;;;7.15;1.48;;;4.40;8.70;;;;;;5106595;28;20436;-77
2024/01/19 12:18:34;;;;;;;9.13;1.00;;;4.30;9.30;;;;;;5107247;28;20427;-77
2024/01/19 12:21:01;;;;;;;8.80;1.05;;;4.40;12.60;;;;;;5105217;28;20797;-77
2024/01/19 12:23:28;;;;;;;8.88;1.40;;;4.40;13.50;;;;;;5107879;28;20631;-77
2024/01/19 12:25:58;;;;;;;9.15;1.23;;;4.50;10.00;;;;;;5085693;28;20410;-77
2024/01/19 12:28:25;;;;;;;5.90;0.98;;;4.70;11.00;;;;;;5062442;28;20410;-77
2024/01/19 12:30:53;;;;;;;11.48;1.73;;;4.80;10.70;;;;;;5106366;28;20404;-77
2024/01/19 12:33:21;;;;;;;6.28;0.85;;;4.80;10.30;;;;;;5096410;28;20441;-77
2024/01/19 12:35:48;;;;;;;7.45;1.13;;;4.80;10.30;;;;;;5105533;28;20408;-77
2024/01/19 12:38:15;;;;;;;8.27;1.20;;;5.00;8.70;;;;;;5096706;28;20413;-77
2024/01/19 12:40:42;;;;;;;11.05;1.35;;;5.00;5.60;;;;;;5106318;28;20433;-77
2024/01/19 12:43:08;;;;;;;7.10;1.30;;;5.00;8.90;;;;;;5106704;28;20412;-77
2024/01/19 12:45:36;;;;;;;9.23;1.20;;;5.40;7.10;;;;;;5087279;28;20398;-77
2024/01/19 12:48:02;;;;;;;6.53;1.17;;;5.60;2.00;;;;;;5088412;28;20414;-77